Time;durP1;ratioP1;P1;durP2;ratioP2;P2;SDS_P1;SDS_P2;PMS_P1;PMS_P2;Temp;Humidity;BMP_temperature;BMP_pressure;BME280_temperature;BME280_humidity;BME280_pressure;Samples;Min_cycle;Max_cycle;Signal;HPM_P1;HPM_P2
2023/12/23 15:51:49;;;;;;;2.33;0.90;;;10.40;99.90;;;;;;5097651;27;21127;-81
2023/12/23 15:54:15;;;;;;;1.90;0.40;;;10.40;99.90;;;;;;5094921;28;20176;-80
2023/12/23 15:56:44;;;;;;;1.43;0.50;;;10.40;99.90;;;;;;5089293;28;20230;-85
2023/12/23 15:59:09;;;;;;;2.90;0.60;;;10.40;99.90;;;;;;5090979;28;20176;-87
2023/12/23 16:01:35;;;;;;;1.57;0.50;;;10.40;99.90;;;;;;5090054;28;20175;-84
2023/12/23 16:04:01;;;;;;;3.93;0.60;;;10.40;99.90;;;;;;5082740;28;20176;-83
2023/12/23 16:06:27;;;;;;;3.20;0.73;;;10.50;99.90;;;;;;5073523;28;20218;-84
2023/12/23 16:08:53;;;;;;;3.83;0.77;;;10.50;99.90;;;;;;5077819;28;20195;-82
2023/12/23 16:11:18;;;;;;;4.80;0.90;;;10.50;99.90;;;;;;5080422;28;20232;-83
2023/12/23 16:13:47;;;;;;;6.40;1.03;;;10.50;99.90;;;;;;5076730;28;20212;-82
2023/12/23 16:16:16;;;;;;;2.83;0.77;;;10.50;99.90;;;;;;5074719;28;20651;-83
2023/12/23 16:18:42;;;;;;;5.13;1.00;;;10.50;99.90;;;;;;5074214;28;20173;-83
2023/12/23 16:21:07;;;;;;;3.40;1.00;;;10.50;99.90;;;;;;5074681;28;20195;-82
2023/12/23 16:23:33;;;;;;;5.23;1.43;;;10.50;99.90;;;;;;5084543;28;20225;-84
2023/12/23 16:25:59;;;;;;;4.30;0.93;;;10.50;99.90;;;;;;5091901;28;20180;-84
2023/12/23 16:28:25;;;;;;;7.33;1.20;;;10.50;99.90;;;;;;5081286;28;20640;-88
2023/12/23 16:30:51;;;;;;;5.97;1.70;;;10.50;99.90;;;;;;5072857;28;20258;-82
2023/12/23 16:33:17;;;;;;;6.30;1.47;;;10.40;99.90;;;;;;5084081;28;20248;-81
2023/12/23 16:35:44;;;;;;;5.60;1.13;;;10.40;99.90;;;;;;5091741;28;20180;-78
2023/12/23 16:38:10;;;;;;;6.47;1.60;;;10.40;99.90;;;;;;5094182;28;20190;-79
2023/12/23 16:40:36;;;;;;;5.83;1.30;;;10.40;99.90;;;;;;5096479;28;20172;-76
2023/12/23 16:43:01;;;;;;;4.17;1.00;;;10.40;99.90;;;;;;5092845;28;20190;-80
2023/12/23 16:45:27;;;;;;;4.90;1.40;;;10.40;99.90;;;;;;5092521;28;20226;-86
2023/12/23 16:47:53;;;;;;;5.97;1.37;;;10.30;99.90;;;;;;5092618;28;20273;-84
2023/12/23 16:50:19;;;;;;;8.23;1.20;;;10.30;99.90;;;;;;5080303;28;20232;-80
2023/12/23 16:52:44;;;;;;;4.33;1.20;;;10.30;99.90;;;;;;5070349;28;20605;-80
2023/12/23 16:55:11;;;;;;;7.17;1.43;;;10.40;99.90;;;;;;5072184;28;20189;-82
2023/12/23 16:57:36;;;;;;;5.20;1.23;;;10.30;99.90;;;;;;5084104;28;20261;-82
2023/12/23 17:00:04;;;;;;;7.73;1.97;;;10.40;99.90;;;;;;5076150;28;20168;-88
2023/12/23 17:02:30;;;;;;;4.67;1.10;;;10.40;99.90;;;;;;5063224;28;20183;-78
2023/12/23 17:04:56;;;;;;;9.20;2.77;;;10.40;99.90;;;;;;5060516;28;20181;-84
2023/12/23 17:07:23;;;;;;;6.23;1.63;;;10.40;99.90;;;;;;5078008;28;20173;-84
2023/12/23 17:09:49;;;;;;;11.87;4.27;;;10.40;99.90;;;;;;5077674;28;20206;-87
2023/12/23 17:12:15;;;;;;;4.27;1.30;;;10.40;99.90;;;;;;5075656;28;21547;-82
2023/12/23 17:14:41;;;;;;;7.50;2.30;;;10.40;99.90;;;;;;5065765;28;20173;-90
2023/12/23 17:17:07;;;;;;;4.17;0.87;;;10.40;99.90;;;;;;5059108;28;20582;-87
2023/12/23 17:19:33;;;;;;;5.63;1.87;;;10.40;99.90;;;;;;5040424;28;20173;-88
2023/12/23 17:21:58;;;;;;;2.60;1.00;;;10.40;99.90;;;;;;5069760;28;20202;-86
2023/12/23 17:24:24;;;;;;;5.87;1.87;;;10.40;99.90;;;;;;5075549;28;20160;-87
2023/12/23 17:26:50;;;;;;;4.67;0.67;;;10.40;99.90;;;;;;5075403;28;20180;-89
2023/12/23 17:29:16;;;;;;;3.20;0.73;;;10.30;99.90;;;;;;5075572;28;20607;-90
2023/12/23 17:31:42;;;;;;;3.00;0.80;;;10.30;99.90;;;;;;5076217;28;20239;-88
2023/12/23 17:34:07;;;;;;;3.60;0.73;;;10.30;99.90;;;;;;5074821;28;20251;-91
2023/12/23 17:36:33;;;;;;;5.10;1.13;;;10.30;99.90;;;;;;5073999;28;20731;-89
2023/12/23 17:38:59;;;;;;;7.60;1.03;;;10.30;99.90;;;;;;5076322;28;20169;-84
2023/12/23 17:41:24;;;;;;;4.93;1.20;;;10.30;99.90;;;;;;5096301;28;20244;-86
2023/12/23 17:43:50;;;;;;;5.00;0.93;;;10.30;99.90;;;;;;5094763;28;20203;-82
2023/12/23 17:46:16;;;;;;;4.13;0.80;;;10.30;99.90;;;;;;5088691;28;20169;-84
2023/12/23 17:48:41;;;;;;;6.77;1.27;;;10.20;99.90;;;;;;5092962;28;20176;-83
2023/12/23 17:51:07;;;;;;;4.87;1.00;;;10.20;99.90;;;;;;5081210;28;20220;-84
2023/12/23 17:53:33;;;;;;;5.30;1.10;;;10.20;99.90;;;;;;5076490;28;20186;-83
2023/12/23 17:56:06;;;;;;;4.13;1.17;;;10.20;99.90;;;;;;5075567;28;20350;-84
2023/12/23 17:58:32;;;;;;;6.87;1.20;;;10.30;99.90;;;;;;5073168;28;20169;-80
2023/12/23 18:00:58;;;;;;;3.60;0.77;;;10.20;99.90;;;;;;5080497;28;20276;-79
2023/12/23 18:03:24;;;;;;;4.20;1.17;;;10.20;99.90;;;;;;5093264;28;20172;-81
2023/12/23 18:05:50;;;;;;;5.20;1.20;;;10.10;99.90;;;;;;5083103;28;20181;-81
2023/12/23 18:08:15;;;;;;;6.17;1.00;;;10.20;99.90;;;;;;5089403;28;20179;-80
2023/12/23 18:10:41;;;;;;;4.53;1.00;;;10.10;99.90;;;;;;5084752;28;20203;-82
2023/12/23 18:13:09;;;;;;;3.67;0.80;;;10.10;99.90;;;;;;5082195;28;20176;-83
2023/12/23 18:15:37;;;;;;;5.90;1.20;;;10.10;99.90;;;;;;5080252;28;20180;-84
2023/12/23 18:18:04;;;;;;;5.50;1.10;;;10.10;99.90;;;;;;5083064;28;20265;-82
2023/12/23 18:20:30;;;;;;;5.80;1.10;;;10.10;99.90;;;;;;5076136;28;20180;-82
2023/12/23 18:22:56;;;;;;;5.27;1.17;;;10.10;99.90;;;;;;5073641;28;20260;-82
2023/12/23 18:25:21;;;;;;;5.73;1.20;;;10.10;99.90;;;;;;5074096;28;20176;-81
2023/12/23 18:27:47;;;;;;;6.27;1.40;;;10.10;99.90;;;;;;5068378;28;20238;-82
2023/12/23 18:30:13;;;;;;;4.83;1.10;;;10.10;99.90;;;;;;5063925;28;20219;-82
2023/12/23 18:32:39;;;;;;;5.90;1.30;;;10.10;99.90;;;;;;5071572;28;20267;-83
2023/12/23 18:35:05;;;;;;;3.27;1.00;;;10.10;99.90;;;;;;5073075;28;20164;-84
2023/12/23 18:37:31;;;;;;;5.47;1.10;;;10.20;99.90;;;;;;5071651;28;20180;-82
2023/12/23 18:39:58;;;;;;;4.13;0.90;;;10.20;99.90;;;;;;5071831;28;20208;-82
2023/12/23 18:42:23;;;;;;;3.30;0.73;;;10.10;99.90;;;;;;5072418;28;20172;-82
2023/12/23 18:44:49;;;;;;;4.97;1.20;;;10.20;99.90;;;;;;5072407;28;20176;-80
2023/12/23 18:47:15;;;;;;;6.97;1.13;;;10.20;99.90;;;;;;5072205;28;20161;-80
2023/12/23 18:49:41;;;;;;;4.67;1.03;;;10.20;99.90;;;;;;5069251;28;20176;-83
2023/12/23 18:52:06;;;;;;;3.77;0.80;;;10.20;99.90;;;;;;5055517;28;20543;-82
2023/12/23 18:54:32;;;;;;;5.43;1.20;;;10.20;99.90;;;;;;5055248;28;20176;-85
2023/12/23 18:56:59;;;;;;;5.70;1.13;;;10.20;99.90;;;;;;5054162;28;20689;-81
2023/12/23 18:59:24;;;;;;;2.27;0.70;;;10.10;99.90;;;;;;5066103;28;20176;-81
2023/12/23 19:01:50;;;;;;;2.77;0.80;;;10.10;99.90;;;;;;5070166;28;20177;-85
2023/12/23 19:04:16;;;;;;;3.70;0.73;;;10.10;99.90;;;;;;5056208;28;20268;-81
2023/12/23 19:06:41;;;;;;;4.33;0.90;;;10.10;99.90;;;;;;5059538;28;20234;-84
2023/12/23 19:09:07;;;;;;;4.07;0.97;;;10.10;99.90;;;;;;5053905;28;20252;-80
2023/12/23 19:11:33;;;;;;;2.53;0.70;;;10.20;99.90;;;;;;5052913;28;20683;-86
2023/12/23 19:13:58;;;;;;;3.70;0.90;;;10.10;99.90;;;;;;5052263;28;20253;-84
2023/12/23 19:16:24;;;;;;;4.47;0.57;;;10.10;99.90;;;;;;5052417;28;20174;-81
2023/12/23 19:18:50;;;;;;;2.50;0.70;;;10.10;99.90;;;;;;5052844;28;20248;-79
2023/12/23 19:21:15;;;;;;;4.17;0.87;;;10.10;99.90;;;;;;5053184;28;20169;-82
2023/12/23 19:23:41;;;;;;;2.87;0.73;;;10.10;99.90;;;;;;5051260;28;20181;-80
2023/12/23 19:26:06;;;;;;;3.47;1.20;;;10.10;99.90;;;;;;5051305;28;20180;-79
2023/12/23 19:28:32;;;;;;;3.97;0.83;;;10.10;99.90;;;;;;5055109;28;20520;-80
2023/12/23 19:31:00;;;;;;;6.93;0.80;;;10.10;99.90;;;;;;5051268;28;20300;-81
2023/12/23 19:33:26;;;;;;;2.53;0.67;;;10.20;99.90;;;;;;5056148;28;20246;-80
2023/12/23 19:35:52;;;;;;;3.87;0.90;;;10.10;99.90;;;;;;5074101;28;20635;-82
2023/12/23 19:38:18;;;;;;;2.10;0.50;;;10.10;99.90;;;;;;5073954;28;20176;-83
2023/12/23 19:40:44;;;;;;;3.83;0.70;;;10.20;99.90;;;;;;5072128;28;20614;-82
2023/12/23 19:43:10;;;;;;;4.83;1.00;;;;;;;;;;5073157;28;20179;-82
2023/12/23 19:45:37;;;;;;;2.57;0.60;;;10.10;99.90;;;;;;5070345;28;20173;-85
2023/12/23 19:48:06;;;;;;;5.17;1.00;;;10.10;99.90;;;;;;5070256;28;20179;-85
2023/12/23 19:50:32;;;;;;;3.13;0.83;;;10.10;99.90;;;;;;5071737;28;20223;-83
2023/12/23 19:52:57;;;;;;;3.90;0.90;;;10.10;99.90;;;;;;5069286;28;20179;-85
2023/12/23 19:55:23;;;;;;;4.53;0.70;;;10.20;99.90;;;;;;5059662;28;20177;-84
2023/12/23 19:57:49;;;;;;;3.53;1.07;;;10.20;99.90;;;;;;5051929;28;20169;-88
2023/12/23 20:00:14;;;;;;;3.87;0.83;;;10.20;99.90;;;;;;5052970;28;20166;-89
2023/12/23 20:02:40;;;;;;;4.43;1.00;;;10.20;99.90;;;;;;5064905;28;20168;-91
2023/12/23 20:05:06;;;;;;;3.97;0.77;;;10.30;99.90;;;;;;5071598;28;20173;-82
2023/12/23 20:07:32;;;;;;;3.53;0.70;;;10.30;99.90;;;;;;5073754;28;20701;-84
2023/12/23 20:09:58;;;;;;;3.10;0.70;;;10.30;99.90;;;;;;5087996;28;20245;-80
2023/12/23 20:12:24;;;;;;;1.83;0.50;;;10.30;99.90;;;;;;5089210;28;20173;-85
2023/12/23 20:14:49;;;;;;;2.50;0.60;;;10.30;99.90;;;;;;5091136;28;20195;-87
2023/12/23 20:17:16;;;;;;;2.60;0.67;;;10.20;99.90;;;;;;5096262;28;20176;-91
2023/12/23 20:19:42;;;;;;;3.20;1.07;;;10.20;99.90;;;;;;5083637;28;20172;-89
2023/12/23 20:22:07;;;;;;;4.23;1.03;;;10.20;99.90;;;;;;5072635;28;20661;-90
2023/12/23 20:24:33;;;;;;;2.17;0.60;;;10.20;99.90;;;;;;5055449;28;20750;-88
2023/12/23 20:26:59;;;;;;;2.03;0.80;;;10.20;99.90;;;;;;5055004;28;20371;-86
2023/12/23 20:29:24;;;;;;;2.83;0.73;;;10.20;99.90;;;;;;5060341;28;20184;-85
2023/12/23 20:31:50;;;;;;;2.87;0.70;;;10.10;99.90;;;;;;5051580;28;20609;-90
2023/12/23 20:34:15;;;;;;;3.63;0.80;;;10.20;99.90;;;;;;5066755;28;20200;-88
2023/12/23 20:36:43;;;;;;;6.13;1.00;;;10.20;99.90;;;;;;5083680;28;20208;-94
2023/12/23 20:39:09;;;;;;;1.40;0.30;;;10.20;99.90;;;;;;5098956;28;20236;-89
2023/12/23 20:41:35;;;;;;;2.10;0.70;;;10.20;99.90;;;;;;5092912;28;20188;-90
2023/12/23 20:44:00;;;;;;;3.77;0.90;;;10.20;99.90;;;;;;5083204;28;20224;-89
2023/12/23 20:46:26;;;;;;;5.37;1.00;;;10.20;99.90;;;;;;5059394;28;20213;-91
2023/12/23 20:48:52;;;;;;;4.47;0.70;;;10.20;99.90;;;;;;5058115;28;20170;-92
2023/12/23 20:51:18;;;;;;;4.60;0.80;;;10.10;99.90;;;;;;5059113;28;20641;-91
2023/12/23 20:53:48;;;;;;;2.67;0.40;;;10.10;99.90;;;;;;5057034;28;20618;-89
2023/12/23 20:56:29;;;;;;;3.47;0.70;;;10.00;99.90;;;;;;5060865;28;20177;-90
2023/12/23 20:58:55;;;;;;;1.30;0.40;;;10.00;99.90;;;;;;5067556;28;20180;-94
2023/12/23 21:01:24;;;;;;;1.90;0.43;;;10.00;99.90;;;;;;5059040;28;20192;-92
2023/12/23 21:03:53;;;;;;;0.97;0.30;;;10.00;99.90;;;;;;5065681;28;20179;-94
2023/12/23 21:06:19;;;;;;;2.40;0.50;;;10.00;99.90;;;;;;5065427;28;20178;-90
2023/12/23 21:08:46;;;;;;;2.47;0.40;;;10.00;99.90;;;;;;5067091;28;20184;-92
2023/12/23 21:11:12;;;;;;;1.70;0.37;;;9.90;99.90;;;;;;5076677;28;20245;-90
2023/12/23 21:13:37;;;;;;;1.20;0.30;;;9.90;99.90;;;;;;5076001;28;20188;-92
2023/12/23 21:16:03;;;;;;;0.67;0.13;;;9.90;99.90;;;;;;5079683;28;20517;-95
2023/12/23 21:18:29;;;;;;;0.73;0.30;;;10.00;99.90;;;;;;5078590;28;20208;-92
2023/12/23 21:20:55;;;;;;;1.27;0.30;;;10.00;99.90;;;;;;5076050;28;20211;-89
2023/12/23 21:23:21;;;;;;;0.93;0.20;;;10.00;99.90;;;;;;5074143;28;20173;-93
2023/12/23 21:25:46;;;;;;;0.87;0.30;;;10.00;99.90;;;;;;5057193;28;20174;-90
2023/12/23 21:28:13;;;;;;;0.57;0.20;;;10.00;99.90;;;;;;5057952;28;20183;-90
2023/12/23 21:30:39;;;;;;;0.93;0.30;;;10.00;99.90;;;;;;5056820;28;20608;-88
2023/12/23 21:33:05;;;;;;;1.00;0.30;;;10.00;99.90;;;;;;5076051;28;20168;-89
2023/12/23 21:35:31;;;;;;;1.47;0.40;;;10.10;99.90;;;;;;5074936;28;20716;-92
2023/12/23 21:37:56;;;;;;;0.47;0.10;;;10.10;99.90;;;;;;5080069;28;20177;-82
2023/12/23 21:40:22;;;;;;;0.63;0.10;;;10.10;99.90;;;;;;5084393;28;20184;-90
2023/12/23 21:42:47;;;;;;;1.20;0.30;;;10.10;99.90;;;;;;5085997;28;20249;-90
2023/12/23 21:45:13;;;;;;;1.30;0.20;;;10.10;99.90;;;;;;5074435;28;20209;-89
2023/12/23 21:47:43;;;;;;;1.10;0.30;;;10.10;99.90;;;;;;5073332;28;20184;-89
2023/12/23 21:50:09;;;;;;;1.70;0.33;;;10.10;99.90;;;;;;5073021;28;20211;-95
2023/12/23 21:52:34;;;;;;;1.13;0.30;;;10.10;99.90;;;;;;5075122;28;20181;-87
2023/12/23 21:55:00;;;;;;;1.57;0.30;;;10.10;99.90;;;;;;5062086;28;20270;-90
2023/12/23 21:57:26;;;;;;;0.50;0.20;;;10.10;99.90;;;;;;5055986;28;20632;-89
2023/12/23 21:59:51;;;;;;;0.53;0.20;;;10.10;99.90;;;;;;5056558;28;20238;-93
2023/12/23 22:02:17;;;;;;;0.83;0.10;;;10.10;99.90;;;;;;5056573;28;20169;-95
2023/12/23 22:04:43;;;;;;;0.77;0.23;;;10.10;99.90;;;;;;5058383;28;20177;-94
2023/12/23 22:07:08;;;;;;;0.43;0.10;;;10.20;99.90;;;;;;5054875;28;20181;-95
2023/12/23 22:09:34;;;;;;;0.37;0.10;;;10.30;99.90;;;;;;5055338;28;20173;-90
2023/12/23 22:12:00;;;;;;;0.63;0.20;;;10.20;99.90;;;;;;5055406;28;20196;-86
2023/12/23 22:14:26;;;;;;;1.23;0.23;;;10.20;99.90;;;;;;5059351;28;20165;-89
2023/12/23 22:16:51;;;;;;;0.73;0.10;;;10.20;99.90;;;;;;5054722;28;20173;-90
2023/12/23 22:19:17;;;;;;;0.53;0.10;;;10.20;99.90;;;;;;5054486;28;20177;-84
2023/12/23 22:21:42;;;;;;;0.30;0.10;;;10.20;99.90;;;;;;5060851;28;20173;-91
2023/12/23 22:24:08;;;;;;;0.93;0.23;;;10.20;99.90;;;;;;5075343;28;20180;-92
2023/12/23 22:26:34;;;;;;;0.23;0.13;;;10.20;99.90;;;;;;5077067;28;20168;-94
2023/12/23 22:28:59;;;;;;;0.40;0.20;;;10.20;99.90;;;;;;5077939;28;20176;-93
2023/12/23 22:31:25;;;;;;;0.30;0.10;;;10.20;99.90;;;;;;5084110;28;20223;-88
2023/12/23 22:33:51;;;;;;;1.10;0.10;;;10.20;99.90;;;;;;5089984;28;20164;-92
2023/12/23 22:36:17;;;;;;;0.43;0.17;;;10.20;99.90;;;;;;5095331;28;20188;-86
2023/12/23 22:38:44;;;;;;;0.87;0.10;;;10.30;99.90;;;;;;5093118;28;20161;-81
2023/12/23 22:41:09;;;;;;;0.47;0.20;;;10.30;99.90;;;;;;5095722;28;20172;-85
2023/12/23 22:43:35;;;;;;;0.50;0.20;;;10.30;99.90;;;;;;5091508;28;20179;-91
2023/12/23 22:46:01;;;;;;;1.13;0.20;;;10.30;99.90;;;;;;5079323;28;20183;-90
